Airport View

Enter AWOS ICAO identifier for current METAR.

ex. KFNL

CYZW 260100Z 24004KT 30SM BKN035 BKN077 20/10 A2993 RMK CF5AC2 LAST STFD OBS/NXT 261300Z SLP151 DENSITY ALT 3400FT

26 Jun 2019 12:19

Other Area AWOS: CWZW - CYXY - PAGY - PAHN

TAF CYZW 251738Z 2518/2601 VRB03KT P6SM FEW140 SCT240 FM252000 27007KT P6SM SCT060 TEMPO 2520/2601 P6SM -SHRA VCTS BKN060CB RMK NXT FCST WILL BE ISSUED AT 261445Z